createdAt,value
2018-12-29T00:02:16.960Z,98423.73
2018-12-29T00:07:41.008Z,98436.20
2018-12-29T00:13:00.345Z,98421.23
2018-12-29T00:18:20.663Z,98437.32
2018-12-29T00:23:40.274Z,98450.96
2018-12-29T00:28:59.531Z,98451.75
2018-12-29T00:34:19.568Z,98452.64
2018-12-29T00:39:39.964Z,98459.20
2018-12-29T00:45:02.735Z,98452.37
2018-12-29T00:50:18.639Z,98459.10
2018-12-29T00:55:38.611Z,98461.72
2018-12-29T01:00:58.195Z,98463.39
2018-12-29T01:06:18.619Z,98466.09
2018-12-29T01:11:37.846Z,98470.63
2018-12-29T01:16:57.926Z,98470.22
2018-12-29T01:22:17.330Z,98475.80
2018-12-29T01:27:37.031Z,98488.18
2018-12-29T01:32:56.546Z,98480.61
2018-12-29T01:38:15.493Z,98483.92
2018-12-29T01:43:34.545Z,98468.75
2018-12-29T01:48:54.083Z,98479.84
2018-12-29T01:54:13.594Z,98470.05
2018-12-29T01:59:32.715Z,98464.80
2018-12-29T02:04:52.119Z,98461.44
2018-12-29T02:10:11.510Z,98454.48
2018-12-29T02:15:31.194Z,98465.33
2018-12-29T02:20:50.462Z,98453.15
2018-12-29T02:26:09.602Z,98458.98
2018-12-29T02:31:28.848Z,98457.81
2018-12-29T02:36:48.094Z,98461.10
2018-12-29T02:42:07.471Z,98458.12
2018-12-29T02:47:26.844Z,98459.89
2018-12-29T02:52:46.157Z,98470.30
2018-12-29T02:58:05.525Z,98458.03
2018-12-29T03:03:25.394Z,98457.30
2018-12-29T03:09:05.238Z,98446.98
2018-12-29T03:14:24.894Z,98450.22
2018-12-29T03:19:44.446Z,98441.14
2018-12-29T03:25:04.404Z,98445.19
2018-12-29T03:30:24.013Z,98431.67
2018-12-29T03:35:43.188Z,98438.02
2018-12-29T03:41:02.377Z,98441.30
2018-12-29T03:46:21.930Z,98454.34
2018-12-29T03:51:41.310Z,98445.45
2018-12-29T03:57:00.293Z,98448.66
2018-12-29T04:02:20.391Z,98452.21
2018-12-29T04:07:39.632Z,98462.59
2018-12-29T04:13:00.341Z,98462.69
2018-12-29T04:18:21.467Z,98470.73
2018-12-29T04:23:41.171Z,98470.17
2018-12-29T04:29:01.128Z,98482.14
2018-12-29T04:34:20.921Z,98482.14
2018-12-29T04:39:40.173Z,98490.13
2018-12-29T04:44:59.358Z,98494.11
2018-12-29T04:50:18.868Z,98505.80
2018-12-29T04:55:38.157Z,98496.38
2018-12-29T05:00:57.872Z,98511.88
2018-12-29T05:06:17.380Z,98516.79
2018-12-29T05:11:36.648Z,98502.02
2018-12-29T05:16:59.742Z,98508.75
2018-12-29T05:22:19.281Z,98512.94
2018-12-29T05:27:39.533Z,98512.94
2018-12-29T05:32:59.478Z,98515.23
2018-12-29T05:38:19.877Z,98516.98
2018-12-29T05:43:38.900Z,98504.28
2018-12-29T05:48:58.168Z,98494.82
2018-12-29T05:54:19.639Z,98508.02
2018-12-29T05:59:39.421Z,98511.48
2018-12-29T06:04:59.239Z,98513.69
2018-12-29T06:10:21.802Z,98523.22
2018-12-29T06:15:42.916Z,98527.14
2018-12-29T06:21:02.265Z,98541.52
2018-12-29T06:26:21.498Z,98540.20
2018-12-29T06:31:40.887Z,98538.00
2018-12-29T06:37:00.963Z,98542.58
2018-12-29T06:42:24.896Z,98542.45
2018-12-29T06:47:45.236Z,98536.08
2018-12-29T06:53:04.980Z,98545.97
2018-12-29T06:58:24.114Z,98561.58
2018-12-29T07:03:44.018Z,98527.10
2018-12-29T07:09:05.359Z,98520.99
2018-12-29T07:14:24.705Z,98520.99
2018-12-29T07:19:44.568Z,98525.83
2018-12-29T07:25:04.398Z,98547.63
2018-12-29T07:30:23.734Z,98547.97
2018-12-29T07:35:45.090Z,98557.42
2018-12-29T07:41:04.610Z,98571.72
2018-12-29T07:46:24.016Z,98568.49
2018-12-29T07:51:43.345Z,98547.97
2018-12-29T07:57:02.745Z,98560.01
2018-12-29T08:02:22.073Z,98556.96
2018-12-29T08:07:41.207Z,98575.28
2018-12-29T08:13:00.280Z,98575.28
2018-12-29T08:18:20.626Z,98588.78
2018-12-29T08:23:40.026Z,98588.78
2018-12-29T08:29:01.631Z,98583.22
2018-12-29T08:34:24.029Z,98579.48
2018-12-29T08:39:42.908Z,98567.78
2018-12-29T08:45:02.112Z,98579.61
2018-12-29T08:50:22.177Z,98571.39
2018-12-29T08:55:41.638Z,98562.19
2018-12-29T09:01:01.963Z,98563.45
2018-12-29T09:06:22.119Z,98564.75
2018-12-29T09:11:41.577Z,98563.51
2018-12-29T09:17:01.343Z,98558.67
2018-12-29T09:22:20.751Z,98547.05
2018-12-29T09:27:40.691Z,98543.83
2018-12-29T09:32:59.937Z,98545.80
2018-12-29T09:38:19.757Z,98554.02
2018-12-29T09:43:39.223Z,98562.95
2018-12-29T09:48:58.806Z,98559.66
2018-12-29T09:54:18.598Z,98561.98
2018-12-29T09:59:38.232Z,98558.02
2018-12-29T10:04:58.996Z,98555.29
2018-12-29T10:10:18.757Z,98562.52
2018-12-29T10:15:38.056Z,98550.81
2018-12-29T10:20:57.892Z,98565.52
2018-12-29T10:26:17.286Z,98561.95
2018-12-29T10:31:36.591Z,98553.97
2018-12-29T10:36:55.747Z,98555.66
2018-12-29T10:42:14.968Z,98558.31
2018-12-29T10:47:35.521Z,98555.89
2018-12-29T10:52:55.490Z,98555.44
2018-12-29T10:58:16.104Z,98535.42
2018-12-29T11:03:36.595Z,98541.80
2018-12-29T11:08:56.346Z,98536.73
2018-12-29T11:14:15.657Z,98519.69
2018-12-29T11:19:35.513Z,98510.14
2018-12-29T11:24:55.640Z,98511.27
2018-12-29T11:30:15.941Z,98516.67
2018-12-29T11:35:35.918Z,98507.40
2018-12-29T11:40:55.133Z,98525.83
2018-12-29T11:46:14.419Z,98510.22
2018-12-29T11:51:34.525Z,98506.73
2018-12-29T11:56:53.973Z,98506.61
2018-12-29T12:02:13.771Z,98508.03
2018-12-29T12:07:33.080Z,98517.29
2018-12-29T12:12:52.400Z,98501.71
2018-12-29T12:18:12.080Z,98511.12
2018-12-29T12:23:31.704Z,98512.08
2018-12-29T12:28:50.755Z,98509.66
2018-12-29T12:34:10.179Z,98514.00
2018-12-29T12:39:29.356Z,98517.95
2018-12-29T12:44:50.396Z,98530.45
2018-12-29T12:50:11.134Z,98539.02
2018-12-29T12:55:30.227Z,98562.27
2018-12-29T13:00:49.642Z,98553.09
2018-12-29T13:06:09.354Z,98564.58
2018-12-29T13:11:29.002Z,98567.74
2018-12-29T13:16:48.473Z,98567.74
2018-12-29T13:22:07.660Z,98576.37
2018-12-29T13:27:27.192Z,98593.73
2018-12-29T13:32:46.228Z,98597.06
2018-12-29T13:38:06.892Z,98597.06
2018-12-29T13:43:27.110Z,98634.81
2018-12-29T13:48:46.708Z,98634.81
2018-12-29T13:54:05.677Z,98636.16
2018-12-29T13:59:24.892Z,98643.20
2018-12-29T14:04:44.017Z,98632.66
2018-12-29T14:10:04.025Z,98632.66
2018-12-29T14:15:24.198Z,98643.95
2018-12-29T14:20:44.288Z,98643.95
2018-12-29T14:26:04.662Z,98673.30
2018-12-29T14:31:23.864Z,98673.30
2018-12-29T14:36:44.084Z,98666.33
2018-12-29T14:43:00.032Z,98664.06
2018-12-29T14:48:18.309Z,98641.78
2018-12-29T14:53:38.379Z,98616.09
2018-12-29T14:58:57.400Z,98617.74
2018-12-29T15:04:52.858Z,98601.72
2018-12-29T15:10:12.562Z,98611.63
2018-12-29T15:15:32.287Z,98611.63
2018-12-29T15:20:51.590Z,98603.25
2018-12-29T15:26:11.738Z,98603.25
2018-12-29T15:31:30.765Z,98622.48
2018-12-29T15:36:51.031Z,98617.14
2018-12-29T15:42:11.596Z,98623.73
2018-12-29T15:47:35.233Z,98622.61
2018-12-29T15:52:58.193Z,98622.61
2018-12-29T15:58:18.620Z,98625.23
2018-12-29T16:03:39.208Z,98620.02
2018-12-29T16:08:58.906Z,98618.56
2018-12-29T16:14:19.115Z,98618.78
2018-12-29T16:19:39.176Z,98606.76
2018-12-29T16:24:59.878Z,98610.46
2018-12-29T16:30:19.974Z,98610.98
2018-12-29T16:35:40.327Z,98613.64
2018-12-29T16:41:02.843Z,98611.16
2018-12-29T16:46:22.804Z,98615.83
2018-12-29T16:51:42.726Z,98620.71
2018-12-29T16:57:03.053Z,98620.71
2018-12-29T17:02:22.598Z,98619.79
2018-12-29T17:07:44.191Z,98620.14
2018-12-29T17:13:04.735Z,98611.52
2018-12-29T17:18:25.019Z,98600.36
2018-12-29T17:23:45.168Z,98588.31
2018-12-29T17:29:06.095Z,98585.88
2018-12-29T17:34:28.337Z,98574.94
2018-12-29T17:39:48.277Z,98563.55
2018-12-29T17:45:07.624Z,98570.61
2018-12-29T17:50:27.610Z,98563.91
2018-12-29T17:55:48.308Z,98537.28
2018-12-29T18:01:11.563Z,98525.13
2018-12-29T18:06:31.011Z,98539.91
2018-12-29T18:11:52.015Z,98527.86
2018-12-29T18:17:11.148Z,98515.28
2018-12-29T18:22:30.454Z,98519.25
2018-12-29T18:27:50.738Z,98507.72
2018-12-29T18:33:10.711Z,98506.47
2018-12-29T18:38:30.456Z,98508.25
2018-12-29T18:43:50.483Z,98505.95
2018-12-29T18:49:10.312Z,98507.30
2018-12-29T18:54:29.849Z,98494.91
2018-12-29T18:59:50.271Z,98480.69
2018-12-29T19:05:11.352Z,98470.98
2018-12-29T19:10:31.190Z,98467.27
2018-12-29T19:15:51.099Z,98449.69
2018-12-29T19:21:10.722Z,98442.72
2018-12-29T19:26:30.346Z,98428.44
2018-12-29T19:31:52.471Z,98432.73
2018-12-29T19:37:10.270Z,98413.36
2018-12-29T19:42:31.117Z,98397.69
2018-12-29T19:47:50.475Z,98393.42
2018-12-29T19:53:09.796Z,98379.34
2018-12-29T19:58:30.102Z,98366.98
2018-12-29T20:03:49.935Z,98372.92
2018-12-29T20:09:09.583Z,98357.28
2018-12-29T20:14:29.460Z,98351.98
2018-12-29T20:19:50.042Z,98339.70
2018-12-29T20:25:10.623Z,98333.58
2018-12-29T20:30:32.164Z,98331.19
2018-12-29T20:35:52.058Z,98329.66
2018-12-29T20:41:13.149Z,98316.74
2018-12-29T20:46:34.260Z,98315.06
2018-12-29T20:51:53.987Z,98292.83
2018-12-29T20:57:14.142Z,98288.90
2018-12-29T21:02:34.326Z,98293.19
2018-12-29T21:07:54.026Z,98278.30
2018-12-29T21:13:14.227Z,98265.94
2018-12-29T21:18:34.778Z,98272.17
2018-12-29T21:23:54.304Z,98247.23
2018-12-29T21:29:13.758Z,98246.63
2018-12-29T21:34:33.342Z,98247.41
2018-12-29T21:39:52.960Z,98238.44
2018-12-29T21:45:12.914Z,98237.55
2018-12-29T21:50:32.554Z,98221.81
2018-12-29T21:55:52.248Z,98230.80
2018-12-29T22:01:12.299Z,98238.98
2018-12-29T22:06:32.029Z,98236.94
2018-12-29T22:11:51.637Z,98248.17
2018-12-29T22:17:11.537Z,98242.67
2018-12-29T22:22:31.361Z,98249.22
2018-12-29T22:27:50.462Z,98249.27
2018-12-29T22:33:09.531Z,98263.21
2018-12-29T22:38:28.858Z,98249.73
2018-12-29T22:43:48.876Z,98185.57
2018-12-29T22:49:08.866Z,98206.16
2018-12-29T22:54:27.681Z,98190.91
2018-12-29T22:59:47.472Z,98176.06
2018-12-29T23:05:06.850Z,98155.27
2018-12-29T23:10:26.411Z,98158.06
2018-12-29T23:15:46.704Z,98124.47
2018-12-29T23:21:05.970Z,98118.83
2018-12-29T23:26:26.263Z,98096.69
2018-12-29T23:31:44.908Z,98072.39
2018-12-29T23:37:04.100Z,98067.21
2018-12-29T23:42:23.996Z,98063.98
2018-12-29T23:47:44.710Z,98041.77
2018-12-29T23:53:05.381Z,98035.19
2018-12-29T23:58:25.216Z,98009.60
